createdAt,value
2023-01-04T00:01:54.745Z,512.59
2023-01-04T00:05:01.452Z,494.73
2023-01-04T00:08:07.980Z,508.14
2023-01-04T00:11:18.231Z,593.01
2023-01-04T00:14:24.044Z,650.24
2023-01-04T00:17:33.418Z,607.82
2023-01-04T00:20:39.297Z,629.72
2023-01-04T00:23:49.204Z,606.40
2023-01-04T00:26:59.162Z,608.05
2023-01-04T00:34:02.384Z,546.09
2023-01-04T00:37:09.183Z,451.44
2023-01-04T00:40:15.915Z,510.78
2023-01-04T00:43:22.587Z,585.16
2023-01-04T00:46:39.238Z,564.75
2023-01-04T00:49:48.516Z,615.21
2023-01-04T00:52:54.337Z,713.13
2023-01-04T00:56:05.056Z,920.38
2023-01-04T00:59:11.207Z,956.56
2023-01-04T01:02:17.948Z,859.84
2023-01-04T01:05:26.753Z,1032.75
2023-01-04T01:08:33.741Z,943.02
2023-01-04T01:11:40.401Z,883.93
2023-01-04T01:14:47.105Z,874.26
2023-01-04T01:17:53.239Z,868.49
2023-01-04T01:21:02.749Z,867.90
2023-01-04T01:24:10.220Z,1010.55
2023-01-04T01:27:35.990Z,1061.35
2023-01-04T01:30:45.670Z,1105.91
2023-01-04T01:33:55.880Z,1114.18
2023-01-04T01:37:05.031Z,1122.11
2023-01-04T01:40:14.307Z,1172.05
2023-01-04T01:43:22.465Z,1150.17
2023-01-04T01:46:41.646Z,1135.22
2023-01-04T01:49:55.806Z,994.40
2023-01-04T01:53:11.564Z,1112.45
2023-01-04T02:44:20.626Z,297.60
2023-01-04T02:47:46.194Z,284.53
2023-01-04T02:51:01.126Z,258.15
2023-01-04T02:54:15.285Z,233.19
2023-01-04T02:57:46.150Z,240.44
2023-01-04T03:01:29.008Z,249.39
2023-01-04T03:05:10.106Z,242.23
2023-01-04T03:08:32.621Z,239.17
2023-01-04T03:12:00.858Z,240.24
2023-01-04T03:15:17.650Z,228.15
2023-01-04T03:18:32.262Z,195.47
2023-01-04T03:21:45.639Z,300.29
2023-01-04T03:25:03.848Z,612.30
2023-01-04T03:28:28.906Z,902.90
2023-01-04T03:31:56.181Z,883.86
2023-01-04T03:39:13.789Z,999.21
2023-01-04T03:42:44.863Z,928.79
2023-01-04T03:46:13.194Z,926.63
2023-01-04T03:49:34.431Z,938.07
2023-01-04T03:52:47.663Z,938.69
2023-01-04T03:56:01.889Z,984.96
2023-01-04T03:59:08.879Z,923.19
2023-01-04T04:02:19.307Z,914.36
2023-01-04T04:05:40.267Z,710.63
2023-01-04T04:12:32.364Z,335.57
2023-01-04T04:15:40.069Z,333.96
2023-01-04T04:18:48.242Z,334.35
2023-01-04T04:21:56.575Z,327.50
2023-01-04T04:25:02.449Z,324.20
2023-01-04T04:28:11.651Z,315.06
2023-01-04T04:31:17.945Z,309.27
2023-01-04T04:34:25.046Z,298.80
2023-01-04T04:37:34.383Z,287.61
2023-01-04T04:40:54.772Z,272.55
2023-01-04T04:44:03.876Z,277.97
2023-01-04T04:47:10.608Z,288.72
2023-01-04T04:50:16.611Z,304.05
2023-01-04T04:53:23.268Z,312.05
2023-01-04T04:56:29.131Z,324.76
2023-01-04T04:59:39.168Z,312.90
2023-01-04T05:02:45.107Z,307.42
2023-01-04T05:05:51.838Z,298.16
2023-01-04T05:08:58.140Z,289.10
2023-01-04T05:12:17.047Z,262.76
2023-01-04T05:15:25.580Z,252.00
2023-01-04T05:18:32.218Z,252.19
2023-01-04T05:21:38.306Z,228.17
2023-01-04T05:24:45.013Z,206.54
2023-01-04T05:27:50.989Z,198.51
2023-01-04T05:31:00.241Z,183.99
2023-01-04T05:34:06.590Z,180.14
2023-01-04T05:37:13.438Z,174.61
2023-01-04T05:40:19.860Z,173.14
2023-01-04T05:43:28.164Z,165.22
2023-01-04T05:46:37.086Z,162.70
2023-01-04T05:49:47.887Z,170.70
2023-01-04T05:52:57.608Z,169.51
2023-01-04T05:56:05.329Z,164.64
2023-01-04T05:59:17.920Z,168.01
2023-01-04T06:02:37.223Z,162.55
2023-01-04T06:05:52.595Z,163.29
2023-01-04T06:09:04.337Z,159.77
2023-01-04T06:12:27.794Z,159.30
2023-01-04T06:15:41.040Z,161.55
2023-01-04T06:18:50.871Z,155.47
2023-01-04T06:22:02.288Z,175.53
2023-01-04T06:25:10.532Z,180.64
2023-01-04T06:28:25.545Z,179.00
2023-01-04T06:31:37.039Z,198.40
2023-01-04T06:34:49.591Z,191.20
2023-01-04T06:37:57.110Z,177.60
2023-01-04T06:41:05.276Z,261.76
2023-01-04T06:44:17.770Z,219.71
2023-01-04T06:47:27.913Z,239.51
2023-01-04T06:50:47.152Z,258.38
2023-01-04T06:53:55.716Z,305.66
2023-01-04T06:57:03.034Z,303.22
2023-01-04T07:00:13.432Z,277.96
2023-01-04T07:03:19.557Z,270.94
2023-01-04T07:06:33.928Z,307.71
2023-01-04T07:09:41.463Z,358.19
2023-01-04T07:12:48.679Z,258.74
2023-01-04T07:15:55.762Z,259.88
2023-01-04T07:19:02.549Z,242.02
2023-01-04T07:22:11.203Z,239.07
2023-01-04T07:25:17.837Z,246.30
2023-01-04T07:28:35.922Z,251.74
2023-01-04T07:31:42.476Z,247.21
2023-01-04T07:34:48.276Z,265.20
2023-01-04T07:37:59.003Z,239.80
2023-01-04T07:41:05.455Z,263.33
2023-01-04T07:44:14.473Z,320.19
2023-01-04T07:47:20.284Z,319.02
2023-01-04T07:50:26.919Z,254.78
2023-01-04T07:53:36.684Z,260.30
2023-01-04T07:56:43.536Z,266.07
2023-01-04T07:59:49.720Z,283.14
2023-01-04T08:02:56.450Z,244.78
2023-01-04T08:06:06.139Z,220.91
2023-01-04T08:09:15.871Z,203.51
2023-01-04T08:12:21.690Z,209.39
2023-01-04T08:15:28.354Z,199.81
2023-01-04T08:18:34.596Z,168.45
2023-01-04T08:21:42.618Z,168.86
2023-01-04T08:24:51.220Z,179.47
2023-01-04T08:27:57.798Z,191.72
2023-01-04T08:31:10.727Z,197.96
2023-01-04T08:34:17.254Z,208.47
2023-01-04T08:37:23.215Z,205.79
2023-01-04T08:40:58.189Z,185.12
2023-01-04T08:43:58.364Z,194.10
2023-01-04T08:47:08.013Z,200.26
2023-01-04T08:50:16.924Z,208.07
2023-01-04T08:53:23.619Z,205.43
2023-01-04T08:56:32.467Z,218.78
2023-01-04T08:59:39.415Z,206.01
2023-01-04T09:02:46.118Z,213.16
2023-01-04T09:05:52.792Z,210.71
2023-01-04T09:09:00.935Z,198.36
2023-01-04T09:12:10.218Z,187.81
2023-01-04T09:15:16.918Z,177.50
2023-01-04T09:18:32.457Z,173.97
2023-01-04T09:21:38.986Z,168.64
2023-01-04T09:24:45.739Z,162.23
2023-01-04T09:27:56.571Z,157.13
2023-01-04T09:31:09.113Z,159.15
2023-01-04T09:34:17.673Z,157.15
2023-01-04T09:37:24.728Z,149.40
2023-01-04T09:40:46.090Z,151.78
2023-01-04T09:43:57.961Z,148.78
2023-01-04T09:47:14.788Z,148.99
2023-01-04T09:50:28.558Z,142.72
2023-01-04T09:53:46.058Z,136.24
2023-01-04T09:57:01.163Z,123.04
2023-01-04T10:00:24.345Z,125.69
2023-01-04T10:03:36.448Z,117.57
2023-01-04T10:06:43.971Z,127.85
2023-01-04T10:09:50.868Z,126.16
2023-01-04T10:13:19.975Z,123.49
2023-01-04T10:17:14.230Z,115.81
2023-01-04T10:24:47.171Z,115.36
2023-01-04T10:28:17.117Z,113.30
2023-01-04T10:31:39.808Z,119.83
2023-01-04T10:34:50.930Z,117.75
2023-01-04T10:38:04.343Z,130.92
2023-01-04T10:41:27.055Z,131.21
2023-01-04T10:44:55.963Z,123.54
2023-01-04T10:48:19.068Z,126.21
2023-01-04T10:51:41.500Z,133.02
2023-01-04T10:54:56.661Z,128.34
2023-01-04T10:58:12.393Z,134.52
2023-01-04T11:01:32.364Z,135.38
2023-01-04T11:04:52.137Z,130.27
2023-01-04T11:08:09.819Z,124.68
2023-01-04T11:11:27.765Z,130.16
2023-01-04T11:14:37.438Z,124.71
2023-01-04T11:17:46.924Z,125.58
2023-01-04T11:20:56.884Z,118.58
2023-01-04T11:24:31.065Z,125.34
2023-01-04T11:27:47.762Z,126.27
2023-01-04T11:31:04.941Z,120.65
2023-01-04T11:34:10.837Z,113.23
2023-01-04T11:37:45.243Z,109.58
2023-01-04T11:41:05.838Z,103.37
2023-01-04T11:44:23.101Z,98.54
2023-01-04T11:47:32.940Z,109.98
2023-01-04T11:50:44.377Z,98.57
2023-01-04T11:54:02.859Z,97.84
2023-01-04T11:57:21.594Z,96.91
2023-01-04T12:00:28.516Z,99.44
2023-01-04T12:03:40.248Z,101.97
2023-01-04T12:06:55.177Z,97.84
2023-01-04T12:10:24.857Z,95.17
2023-01-04T12:13:32.459Z,93.14
2023-01-04T12:16:56.837Z,99.40
2023-01-04T12:20:19.602Z,85.23
2023-01-04T12:23:27.343Z,88.45
2023-01-04T12:26:36.233Z,87.61
2023-01-04T12:29:57.581Z,83.69
2023-01-04T12:33:23.543Z,82.61
2023-01-04T12:37:04.959Z,92.85
2023-01-04T12:40:56.659Z,86.37
2023-01-04T12:44:43.435Z,80.64
2023-01-04T12:48:07.189Z,84.28
2023-01-04T12:51:34.200Z,84.74
2023-01-04T12:54:50.667Z,83.98
2023-01-04T12:57:59.107Z,75.68
2023-01-04T13:01:29.547Z,86.37
2023-01-04T13:04:45.196Z,81.39
2023-01-04T13:07:57.013Z,75.11
2023-01-04T13:11:08.053Z,81.77
2023-01-04T13:14:29.162Z,78.22
2023-01-04T13:17:43.353Z,76.08
2023-01-04T13:20:49.637Z,79.83
2023-01-04T13:24:01.365Z,98.08
2023-01-04T13:27:11.161Z,80.48
2023-01-04T13:30:34.561Z,82.90
2023-01-04T13:33:43.160Z,89.54
2023-01-04T13:36:59.383Z,91.95
2023-01-04T13:40:27.019Z,96.69
2023-01-04T13:44:06.046Z,111.16
2023-01-04T13:47:13.748Z,92.11
2023-01-04T13:50:35.989Z,93.88
2023-01-04T13:53:42.013Z,93.95
2023-01-04T13:56:55.178Z,91.33
2023-01-04T14:00:01.512Z,87.95
2023-01-04T14:03:39.554Z,80.94
2023-01-04T14:06:51.645Z,84.09
2023-01-04T14:10:03.739Z,71.89
2023-01-04T14:13:10.284Z,70.56
2023-01-04T14:16:18.849Z,69.55
2023-01-04T14:19:45.058Z,71.75
2023-01-04T14:22:59.495Z,81.91
2023-01-04T14:26:05.662Z,69.90
2023-01-04T14:29:25.813Z,61.20
2023-01-04T14:32:31.702Z,77.40
2023-01-04T14:35:41.949Z,67.50
2023-01-04T14:39:12.801Z,64.89
2023-01-04T14:42:30.251Z,65.94
2023-01-04T14:45:36.111Z,78.08
2023-01-04T14:48:42.792Z,68.44
2023-01-04T14:51:52.804Z,145.51
2023-01-04T14:55:05.040Z,106.01
2023-01-04T14:58:10.891Z,62.46
2023-01-04T15:01:17.626Z,58.89
2023-01-04T15:04:24.322Z,82.71
2023-01-04T15:07:39.867Z,62.71
2023-01-04T15:10:54.603Z,544.79
2023-01-04T15:14:04.545Z,86.06
2023-01-04T15:17:10.632Z,88.01
2023-01-04T15:20:17.729Z,73.75
2023-01-04T15:23:23.545Z,71.05
2023-01-04T15:26:33.352Z,65.81
2023-01-04T15:29:39.371Z,67.27
2023-01-04T15:32:46.006Z,70.25
2023-01-04T15:36:01.358Z,73.69
2023-01-04T15:39:08.135Z,90.62
2023-01-04T15:42:29.029Z,76.30
2023-01-04T15:45:42.431Z,77.22
2023-01-04T15:48:48.362Z,77.96
2023-01-04T15:51:55.982Z,74.48
2023-01-04T15:55:01.795Z,315.03
2023-01-04T15:58:30.855Z,282.56
2023-01-04T16:01:36.838Z,169.84
2023-01-04T16:04:46.028Z,126.99
2023-01-04T16:07:55.333Z,82.88
2023-01-04T16:11:01.939Z,76.89
2023-01-04T16:14:12.829Z,103.18
2023-01-04T16:17:21.195Z,91.04
2023-01-04T16:20:27.786Z,78.57
2023-01-04T16:23:35.638Z,87.03
2023-01-04T16:26:41.609Z,92.46
2023-01-04T16:29:54.782Z,116.58
2023-01-04T16:33:00.547Z,159.59
2023-01-04T16:36:10.746Z,150.02
2023-01-04T16:39:17.029Z,130.95
2023-01-04T16:42:24.845Z,97.82
2023-01-04T16:45:33.386Z,130.30
2023-01-04T16:48:39.994Z,75.11
2023-01-04T16:51:50.001Z,93.63
2023-01-04T16:54:56.592Z,80.97
2023-01-04T16:58:02.487Z,84.04
2023-01-04T17:01:15.946Z,83.55
2023-01-04T17:04:22.706Z,115.90
2023-01-04T17:07:33.227Z,112.70
2023-01-04T17:10:40.945Z,315.64
2023-01-04T17:13:47.703Z,106.51
2023-01-04T17:16:57.614Z,82.89
2023-01-04T17:20:06.498Z,79.35
2023-01-04T17:23:13.083Z,91.72
2023-01-04T17:26:24.175Z,99.09
2023-01-04T17:29:30.322Z,73.60
2023-01-04T17:32:39.812Z,90.30
2023-01-04T17:35:46.055Z,73.09
2023-01-04T17:38:53.299Z,74.58
2023-01-04T17:41:59.394Z,78.63
2023-01-04T17:45:09.278Z,67.28
2023-01-04T17:48:18.961Z,70.76
2023-01-04T17:51:28.019Z,83.19
2023-01-04T17:54:34.075Z,83.28
2023-01-04T18:01:12.884Z,75.30
2023-01-04T18:04:22.106Z,82.87
2023-01-04T18:07:28.638Z,327.53
2023-01-04T18:10:48.843Z,105.96
2023-01-04T18:14:05.842Z,85.74
2023-01-04T18:17:17.961Z,186.30
2023-01-04T18:20:35.197Z,84.31
2023-01-04T18:23:55.391Z,75.10
2023-01-04T18:27:22.721Z,76.54
2023-01-04T18:30:31.139Z,84.74
2023-01-04T18:33:36.958Z,83.87
2023-01-04T18:36:46.806Z,82.36
2023-01-04T18:39:53.113Z,82.59
2023-01-04T18:42:59.931Z,79.37
2023-01-04T18:46:10.887Z,84.27
2023-01-04T18:49:17.816Z,105.38
2023-01-04T18:52:26.199Z,84.16
2023-01-04T18:55:32.818Z,80.27
2023-01-04T18:58:40.167Z,85.43
2023-01-04T19:01:47.107Z,77.55
2023-01-04T19:04:57.515Z,78.26
2023-01-04T19:08:07.280Z,82.00
2023-01-04T19:11:13.961Z,78.49
2023-01-04T19:14:21.439Z,88.78
2023-01-04T19:17:27.891Z,86.96
2023-01-04T19:20:34.758Z,85.92
2023-01-04T19:23:43.622Z,85.52
2023-01-04T19:26:50.368Z,77.97
2023-01-04T19:29:57.206Z,77.04
2023-01-04T19:33:03.989Z,81.42
2023-01-04T19:36:12.963Z,87.68
2023-01-04T19:39:22.426Z,83.84
2023-01-04T19:42:29.033Z,79.58
2023-01-04T19:45:42.003Z,72.85
2023-01-04T19:48:48.584Z,74.91
2023-01-04T19:51:57.733Z,83.97
2023-01-04T19:55:08.910Z,81.44
2023-01-04T19:58:15.941Z,82.42
2023-01-04T20:01:25.369Z,77.47
2023-01-04T20:04:32.120Z,77.25
2023-01-04T20:07:37.927Z,79.99
2023-01-04T20:10:47.385Z,75.92
2023-01-04T20:13:53.376Z,75.17
2023-01-04T20:17:00.707Z,82.01
2023-01-04T20:20:07.112Z,87.05
2023-01-04T20:23:15.043Z,84.30
2023-01-04T20:26:23.686Z,80.14
2023-01-04T20:29:30.707Z,75.56
2023-01-04T20:32:39.493Z,71.29
2023-01-04T20:35:47.968Z,66.32
2023-01-04T20:38:54.253Z,71.47
2023-01-04T20:42:16.126Z,72.14
2023-01-04T20:45:22.277Z,68.74
2023-01-04T20:48:29.291Z,70.62
2023-01-04T20:51:35.361Z,68.21
2023-01-04T20:54:44.936Z,69.74
2023-01-04T20:57:53.414Z,73.94
2023-01-04T21:01:00.281Z,72.27
2023-01-04T21:04:06.128Z,74.76
2023-01-04T21:07:12.763Z,76.98
2023-01-04T21:10:18.788Z,76.38
2023-01-04T21:13:28.744Z,74.05
2023-01-04T21:16:34.667Z,73.41
2023-01-04T21:19:41.353Z,78.69
2023-01-04T21:22:47.466Z,75.62
2023-01-04T21:25:57.503Z,70.25
2023-01-04T21:29:06.369Z,72.06
2023-01-04T21:32:13.243Z,69.36
2023-01-04T21:35:19.446Z,72.95
2023-01-04T21:38:26.769Z,80.20
2023-01-04T21:41:33.840Z,82.01
2023-01-04T21:44:43.688Z,80.27
2023-01-04T21:47:51.990Z,80.80
2023-01-04T21:51:02.830Z,87.15
2023-01-04T21:54:09.286Z,79.31
2023-01-04T21:57:16.820Z,76.21
2023-01-04T22:00:25.852Z,76.43
2023-01-04T22:03:33.306Z,71.64
2023-01-04T22:06:44.324Z,67.21
2023-01-04T22:09:57.252Z,68.22
2023-01-04T22:13:03.961Z,73.80
2023-01-04T22:16:19.727Z,66.69
2023-01-04T22:19:26.234Z,71.63
2023-01-04T22:22:33.453Z,72.77
2023-01-04T22:25:40.368Z,71.32
2023-01-04T22:28:47.124Z,67.82
2023-01-04T22:31:55.574Z,61.27
2023-01-04T22:35:02.321Z,62.61
2023-01-04T22:38:08.249Z,59.56
2023-01-04T22:41:19.144Z,63.98
2023-01-04T22:44:25.073Z,62.06
2023-01-04T22:47:36.067Z,59.90
2023-01-04T22:50:42.132Z,62.16
2023-01-04T22:53:51.729Z,61.47
2023-01-04T22:56:57.768Z,61.04
2023-01-04T23:00:04.554Z,56.78
2023-01-04T23:03:13.153Z,56.30
2023-01-04T23:06:19.932Z,56.24
2023-01-04T23:09:26.001Z,58.13
2023-01-04T23:12:33.680Z,60.42
2023-01-04T23:15:41.223Z,58.00
2023-01-04T23:18:50.944Z,53.08
2023-01-04T23:21:56.749Z,58.57
2023-01-04T23:25:03.478Z,56.92
2023-01-04T23:28:09.265Z,51.75
2023-01-04T23:31:19.102Z,55.71
2023-01-04T23:34:28.958Z,52.91
2023-01-04T23:37:36.181Z,54.09
2023-01-04T23:40:41.961Z,51.95
2023-01-04T23:43:48.898Z,51.11
2023-01-04T23:46:57.591Z,48.52
2023-01-04T23:50:07.998Z,51.86
2023-01-04T23:53:13.720Z,53.08
2023-01-04T23:56:20.381Z,50.51
2023-01-04T23:59:27.521Z,52.14
